Tansboro, New Jersey
Current Conditions -  °F | °C
As of 7:54 PM on Sunday 23 Nov 2014 (Local Time) from KVAY Reporting Station
Clear Clear  
Wind Chill: 47°   Ceiling: Unl
Heat Index: 49°   Visibility: 10mi
Dew Point: 42°   Wind: 5mph
Humidity: 77%   Direction: 150°SSE
Pressure: 30.09"   Gusts: NA
Location:  39.7587°N, 74.9349°W
Report Text: KVAY 240054Z AUTO 15004KT 10SM CLR 09/06 A3009 RMK AO2 SLP190 T00940056
Loading
Personal Weather Stations






























Interactive Weather Map New forecast layout! Learn more

10-Day Weather Forecast

Advertisements
Track Severe Weather on mobile